Time;durP1;ratioP1;P1;durP2;ratioP2;P2;SDS_P1;SDS_P2;PMS_P1;PMS_P2;Temp;Humidity;BMP_temperature;BMP_pressure;BME280_temperature;BME280_humidity;BME280_pressure;Samples;Min_cycle;Max_cycle;Signal;HPM_P1;HPM_P2
2023/07/20 00:01:12;;;;;;;21.85;7.60;;;31.10;60.00;;;;;;6214867;23;20019;-74
2023/07/20 00:03:38;;;;;;;15.50;6.32;;;31.10;60.00;;;;;;6215627;23;20387;-73
2023/07/20 00:06:04;;;;;;;23.45;7.00;;;31.10;60.30;;;;;;6214559;23;20342;-74
2023/07/20 00:08:30;;;;;;;21.05;6.93;;;31.00;60.70;;;;;;6213652;23;20024;-73
2023/07/20 00:10:56;;;;;;;23.52;7.63;;;30.90;61.00;;;;;;6214961;23;20005;-74
2023/07/20 00:13:22;;;;;;;22.48;8.32;;;30.90;61.30;;;;;;6214870;23;20066;-74
2023/07/20 00:15:47;;;;;;;25.73;7.78;;;30.90;61.60;;;;;;6215147;23;20337;-73
2023/07/20 00:18:13;;;;;;;26.95;8.10;;;30.90;61.50;;;;;;6214683;23;20001;-74
2023/07/20 00:20:39;;;;;;;22.80;8.80;;;30.90;61.60;;;;;;6214805;23;20012;-72
2023/07/20 00:23:05;;;;;;;23.42;8.25;;;30.90;62.20;;;;;;6214944;23;20000;-73
2023/07/20 00:25:31;;;;;;;25.70;9.57;;;30.90;62.60;;;;;;6214695;23;20004;-75
2023/07/20 00:27:56;;;;;;;27.65;8.75;;;30.90;62.90;;;;;;6214573;23;20103;-74
2023/07/20 00:30:22;;;;;;;20.27;8.25;;;30.90;63.20;;;;;;6214832;23;20007;-73
2023/07/20 00:32:48;;;;;;;27.05;8.63;;;30.90;63.30;;;;;;6215177;23;20009;-75
2023/07/20 00:35:14;;;;;;;30.98;8.82;;;30.90;63.30;;;;;;6214969;23;20027;-73
2023/07/20 00:37:40;;;;;;;21.90;8.75;;;30.80;63.50;;;;;;6215219;23;20001;-74
2023/07/20 00:40:09;;;;;;;22.63;8.95;;;30.80;63.30;;;;;;6215090;23;20011;-74
2023/07/20 00:42:35;;;;;;;23.40;8.73;;;30.80;63.00;;;;;;6214983;23;20079;-74
2023/07/20 00:45:00;;;;;;;23.85;8.02;;;30.70;62.30;;;;;;6215238;23;20024;-73
2023/07/20 00:47:27;;;;;;;22.17;7.70;;;30.60;61.80;;;;;;6214980;23;20000;-74
2023/07/20 00:49:54;;;;;;;22.92;8.10;;;30.60;61.70;;;;;;6214728;23;20001;-75
2023/07/20 00:52:23;;;;;;;26.55;8.82;;;30.50;61.10;;;;;;6214785;23;20341;-74
2023/07/20 00:54:49;;;;;;;24.92;8.95;;;30.50;61.00;;;;;;6214719;23;20004;-74
2023/07/20 00:57:17;;;;;;;23.30;7.78;;;30.50;61.00;;;;;;6214898;23;19997;-73
2023/07/20 00:59:43;;;;;;;25.85;7.60;;;30.40;60.20;;;;;;6214726;23;20005;-74
2023/07/20 01:02:09;;;;;;;22.85;8.05;;;30.30;60.10;;;;;;6213980;23;20484;-73
2023/07/20 01:04:36;;;;;;;18.80;7.75;;;30.20;59.90;;;;;;6214702;23;20001;-73
2023/07/20 01:07:10;;;;;;;23.27;8.80;;;30.20;59.70;;;;;;6214815;23;20001;-73
2023/07/20 01:09:58;;;;;;;21.65;7.80;;;30.10;59.70;;;;;;6214929;23;20553;-74
2023/07/20 01:12:40;;;;;;;17.70;7.90;;;30.00;59.90;;;;;;6216546;23;20000;-73
2023/07/20 01:15:07;;;;;;;25.77;8.25;;;30.00;59.90;;;;;;6216577;23;20031;-73
2023/07/20 01:17:34;;;;;;;23.70;8.00;;;29.90;59.50;;;;;;6217008;23;20003;-75
2023/07/20 01:20:00;;;;;;;24.98;8.38;;;29.90;59.50;;;;;;6216611;23;20004;-73
2023/07/20 01:22:55;;;;;;;20.02;8.63;;;29.80;59.50;;;;;;6216843;23;20036;-73
2023/07/20 01:25:59;;;;;;;27.60;9.20;;;29.80;59.80;;;;;;6216445;23;19997;-75
2023/07/20 01:28:37;;;;;;;22.30;8.40;;;29.80;59.70;;;;;;6147031;23;20008;-73
2023/07/20 01:31:14;;;;;;;30.10;8.85;;;29.80;59.10;;;;;;6216287;23;19996;-72
2023/07/20 01:33:42;;;;;;;30.58;8.38;;;29.90;59.20;;;;;;6216473;23;20024;-73
2023/07/20 01:36:09;;;;;;;21.98;7.80;;;29.90;59.20;;;;;;6216341;23;20028;-74
2023/07/20 01:38:36;;;;;;;22.65;8.15;;;29.80;59.10;;;;;;6216072;23;20070;-73
2023/07/20 01:41:03;;;;;;;20.80;8.38;;;29.80;59.00;;;;;;6216552;23;20017;-74
2023/07/20 01:43:28;;;;;;;27.00;7.72;;;29.70;58.90;;;;;;6189477;23;20439;-73
2023/07/20 01:45:54;;;;;;;21.65;7.95;;;29.70;59.00;;;;;;6216393;23;20001;-74
2023/07/20 01:48:20;;;;;;;19.08;7.75;;;29.70;58.70;;;;;;6216080;23;20028;-73
2023/07/20 01:50:46;;;;;;;21.98;7.25;;;29.60;58.60;;;;;;6216591;23;20005;-74
2023/07/20 01:53:11;;;;;;;26.02;7.80;;;29.60;58.40;;;;;;6189989;23;20035;-74
2023/07/20 01:55:37;;;;;;;30.17;8.10;;;29.60;58.30;;;;;;6215915;23;20062;-74
2023/07/20 01:58:03;;;;;;;22.10;7.55;;;29.70;58.10;;;;;;6216253;23;20004;-74
2023/07/20 02:00:29;;;;;;;19.30;7.20;;;29.70;58.10;;;;;;6216024;23;20343;-74
2023/07/20 02:02:55;;;;;;;25.52;8.65;;;29.70;57.80;;;;;;6215893;23;20040;-74
2023/07/20 02:05:20;;;;;;;22.15;7.88;;;29.60;58.10;;;;;;6215977;23;20007;-70
2023/07/20 02:07:46;;;;;;;18.70;7.20;;;29.60;58.30;;;;;;6216043;23;20387;-74
2023/07/20 02:10:12;;;;;;;21.27;7.55;;;29.50;58.30;;;;;;6216196;23;20004;-74
2023/07/20 02:12:38;;;;;;;19.92;7.20;;;29.50;58.40;;;;;;6216125;23;20004;-73
2023/07/20 02:15:04;;;;;;;21.48;7.22;;;29.50;58.20;;;;;;6215815;23;20000;-73
2023/07/20 02:17:30;;;;;;;21.65;6.97;;;29.60;58.10;;;;;;6215816;23;20008;-74
2023/07/20 02:19:59;;;;;;;21.70;7.43;;;29.50;58.00;;;;;;6216241;23;20024;-74
2023/07/20 02:22:25;;;;;;;20.35;6.88;;;29.60;57.90;;;;;;6215701;23;20083;-73
2023/07/20 02:24:51;;;;;;;23.40;8.07;;;29.60;57.70;;;;;;6215863;23;20324;-74
2023/07/20 02:27:16;;;;;;;26.67;7.07;;;29.60;57.30;;;;;;6189140;23;20078;-73
2023/07/20 02:29:42;;;;;;;20.35;7.38;;;29.60;57.20;;;;;;6188904;23;20009;-73
2023/07/20 02:32:09;;;;;;;19.92;7.13;;;29.60;57.20;;;;;;6215675;23;19996;-72
2023/07/20 02:34:35;;;;;;;20.88;6.28;;;29.50;57.10;;;;;;6215930;23;20001;-74
2023/07/20 02:37:01;;;;;;;16.98;6.47;;;29.50;57.30;;;;;;6216397;23;19997;-73
2023/07/20 02:39:30;;;;;;;20.10;7.20;;;29.50;57.30;;;;;;6216532;23;20435;-73
2023/07/20 02:41:56;;;;;;;20.10;6.85;;;29.50;57.10;;;;;;6216120;23;20443;-73
2023/07/20 02:44:22;;;;;;;22.33;7.03;;;29.50;56.90;;;;;;6215970;23;19997;-73
2023/07/20 02:46:49;;;;;;;20.58;6.75;;;29.40;56.70;;;;;;6216011;23;20012;-74
2023/07/20 02:49:15;;;;;;;20.02;6.97;;;29.40;56.70;;;;;;6216059;23;19996;-75
2023/07/20 02:51:41;;;;;;;21.02;7.00;;;29.40;56.90;;;;;;6216308;23;20015;-73
2023/07/20 02:54:07;;;;;;;24.35;6.93;;;29.40;57.40;;;;;;6215904;23;20004;-73
2023/07/20 02:56:32;;;;;;;25.90;6.95;;;29.40;56.80;;;;;;6215942;23;20001;-74
2023/07/20 02:58:58;;;;;;;16.00;6.55;;;29.40;56.60;;;;;;6215583;23;20004;-73
2023/07/20 03:01:24;;;;;;;29.33;7.32;;;29.40;56.30;;;;;;6215471;23;20023;-76
2023/07/20 03:03:50;;;;;;;24.38;7.75;;;29.40;56.20;;;;;;6215596;23;20012;-73
2023/07/20 03:06:16;;;;;;;22.90;7.45;;;29.40;56.30;;;;;;6215767;23;20330;-73
2023/07/20 03:08:47;;;;;;;23.55;6.65;;;29.40;56.20;;;;;;6216045;23;20031;-74
2023/07/20 03:11:14;;;;;;;13.95;6.47;;;29.40;56.10;;;;;;6215144;23;20008;-73
2023/07/20 03:13:42;;;;;;;25.10;6.93;;;29.40;56.30;;;;;;6215403;23;20003;-73
2023/07/20 03:16:11;;;;;;;17.00;7.40;;;29.30;56.40;;;;;;6215857;23;20442;-74
2023/07/20 03:18:38;;;;;;;21.70;7.53;;;29.30;56.50;;;;;;6216058;23;20043;-75
2023/07/20 03:21:05;;;;;;;18.33;6.47;;;29.20;56.70;;;;;;6215481;23;20013;-74
2023/07/20 03:23:30;;;;;;;23.23;6.68;;;29.10;56.90;;;;;;6215432;23;20001;-74
2023/07/20 03:25:56;;;;;;;20.92;6.53;;;29.10;56.90;;;;;;6215338;23;20076;-73
2023/07/20 03:28:22;;;;;;;23.15;6.55;;;29.10;57.10;;;;;;6215548;23;20000;-73
2023/07/20 03:30:55;;;;;;;25.13;7.18;;;29.00;57.10;;;;;;6215504;23;20081;-73
2023/07/20 03:33:27;;;;;;;21.48;7.95;;;29.00;57.40;;;;;;6215373;23;20438;-73
2023/07/20 03:35:54;;;;;;;26.13;7.25;;;29.00;57.50;;;;;;6215337;23;19997;-73
2023/07/20 03:38:20;;;;;;;21.05;6.90;;;28.90;57.40;;;;;;6215096;23;20011;-73
2023/07/20 03:40:53;;;;;;;22.55;6.30;;;28.90;57.70;;;;;;6215335;23;20020;-73
2023/07/20 03:43:19;;;;;;;23.52;6.57;;;28.90;57.70;;;;;;6215398;23;20048;-74
2023/07/20 03:45:51;;;;;;;19.88;7.05;;;28.80;57.70;;;;;;6215601;23;20315;-74
2023/07/20 03:48:21;;;;;;;20.17;7.25;;;28.90;57.80;;;;;;6215554;23;19996;-73
2023/07/20 03:50:49;;;;;;;24.50;6.80;;;28.90;57.90;;;;;;6215203;23;20013;-74
2023/07/20 03:53:15;;;;;;;25.75;7.10;;;28.90;57.80;;;;;;6215217;23;20004;-74
2023/07/20 03:55:50;;;;;;;24.77;8.35;;;28.80;57.80;;;;;;6215042;23;20086;-73
2023/07/20 03:58:17;;;;;;;24.45;7.43;;;28.70;58.20;;;;;;6215098;23;20488;-74
2023/07/20 04:00:47;;;;;;;19.92;7.13;;;28.70;58.30;;;;;;6215053;23;20039;-73
2023/07/20 04:03:14;;;;;;;20.83;6.75;;;28.70;58.30;;;;;;6163454;23;20020;-75
2023/07/20 04:05:39;;;;;;;19.40;7.18;;;28.70;58.50;;;;;;6214882;23;20012;-73
2023/07/20 04:08:05;;;;;;;21.52;7.38;;;28.70;58.70;;;;;;6215045;23;20272;-74
2023/07/20 04:10:31;;;;;;;25.50;7.85;;;28.70;58.50;;;;;;6214832;23;20051;-73
2023/07/20 04:12:56;;;;;;;21.08;7.20;;;28.70;58.50;;;;;;6214797;23;20423;-75
2023/07/20 04:15:22;;;;;;;21.40;7.50;;;28.80;58.60;;;;;;6187967;23;20008;-74
2023/07/20 04:17:48;;;;;;;20.50;7.20;;;28.80;58.90;;;;;;6214995;23;20446;-74
2023/07/20 04:20:14;;;;;;;23.33;7.18;;;28.80;58.90;;;;;;6214606;23;20024;-74
2023/07/20 04:22:39;;;;;;;23.42;8.27;;;28.80;58.90;;;;;;6215148;23;20004;-74
2023/07/20 04:25:06;;;;;;;18.48;6.82;;;28.80;59.10;;;;;;6214996;23;20335;-74
2023/07/20 04:27:31;;;;;;;25.63;6.60;;;28.80;59.20;;;;;;6214811;23;20346;-74
2023/07/20 04:30:00;;;;;;;27.55;8.32;;;28.80;58.70;;;;;;6214975;23;20007;-73
2023/07/20 04:32:26;;;;;;;21.20;6.95;;;28.80;58.80;;;;;;6214908;23;19997;-74
2023/07/20 04:34:51;;;;;;;25.52;7.75;;;28.90;58.70;;;;;;6214934;23;20005;-73
2023/07/20 04:37:17;;;;;;;20.23;7.15;;;28.90;58.60;;;;;;6214794;23;19997;-73
2023/07/20 04:39:43;;;;;;;22.75;6.68;;;29.00;58.60;;;;;;6214685;23;20007;-76
2023/07/20 04:42:08;;;;;;;22.08;7.15;;;28.90;58.50;;;;;;6215749;23;20024;-74
2023/07/20 04:44:34;;;;;;;16.63;6.60;;;28.90;58.80;;;;;;6215221;23;19997;-74
2023/07/20 04:47:00;;;;;;;22.75;7.13;;;29.00;58.50;;;;;;6187885;23;20012;-74
2023/07/20 04:49:25;;;;;;;22.17;7.13;;;29.00;58.30;;;;;;6214706;23;20001;-73
2023/07/20 04:51:52;;;;;;;17.25;6.80;;;29.10;58.10;;;;;;6214591;23;20426;-76
2023/07/20 04:54:18;;;;;;;22.48;6.93;;;29.10;58.10;;;;;;6214593;23;20062;-74
2023/07/20 04:56:44;;;;;;;22.30;6.93;;;29.10;57.60;;;;;;6214797;23;20001;-75
2023/07/20 04:59:10;;;;;;;18.48;7.47;;;29.20;57.50;;;;;;6214937;23;20446;-74
2023/07/20 05:01:35;;;;;;;25.10;8.10;;;29.30;57.30;;;;;;6214489;23;20020;-74
2023/07/20 05:04:02;;;;;;;20.02;7.07;;;29.30;57.10;;;;;;6187913;23;20024;-74
2023/07/20 05:06:27;;;;;;;19.50;6.90;;;29.30;57.10;;;;;;6187538;23;20035;-75
2023/07/20 05:08:53;;;;;;;17.30;6.85;;;29.30;57.30;;;;;;6214624;23;20485;-74
2023/07/20 05:11:19;;;;;;;20.95;6.63;;;29.20;57.10;;;;;;6214572;23;20455;-75
2023/07/20 05:13:45;;;;;;;22.65;6.68;;;29.30;57.30;;;;;;6214558;23;20076;-75
2023/07/20 05:16:11;;;;;;;21.17;7.25;;;29.30;57.50;;;;;;6214584;23;20367;-74
2023/07/20 05:18:37;;;;;;;19.52;7.97;;;29.30;57.70;;;;;;6214608;23;20431;-74
2023/07/20 05:21:02;;;;;;;22.65;7.85;;;29.40;57.60;;;;;;6214424;23;20074;-74
2023/07/20 05:23:28;;;;;;;22.13;7.57;;;29.40;57.80;;;;;;6214525;23;19997;-75
2023/07/20 05:25:56;;;;;;;21.92;7.63;;;29.50;57.70;;;;;;6214945;23;20011;-74
2023/07/20 05:28:22;;;;;;;22.65;7.65;;;29.70;57.60;;;;;;6214586;23;20323;-74
2023/07/20 05:30:47;;;;;;;25.45;7.85;;;29.90;57.30;;;;;;6214679;23;20375;-74
2023/07/20 05:33:13;;;;;;;25.08;7.10;;;30.10;57.10;;;;;;6187518;23;20012;-73
2023/07/20 05:35:39;;;;;;;18.92;6.45;;;30.30;56.90;;;;;;6187743;23;20008;-74
2023/07/20 05:38:06;;;;;;;21.92;7.13;;;30.40;56.70;;;;;;6187790;23;20069;-75
2023/07/20 05:40:32;;;;;;;26.13;8.15;;;30.50;56.60;;;;;;6214621;23;20315;-74
2023/07/20 05:42:58;;;;;;;21.63;7.65;;;30.80;56.00;;;;;;6214210;23;20087;-75
2023/07/20 05:45:24;;;;;;;20.13;7.18;;;31.20;55.70;;;;;;6214409;23;20084;-72
2023/07/20 05:47:50;;;;;;;25.10;8.15;;;31.50;55.50;;;;;;6214804;23;20370;-74
2023/07/20 05:50:16;;;;;;;26.95;7.85;;;31.70;54.90;;;;;;6214226;23;20028;-75
2023/07/20 05:52:41;;;;;;;26.88;8.73;;;32.00;55.30;;;;;;6214141;23;20032;-74
2023/07/20 05:55:07;;;;;;;24.85;7.47;;;32.20;54.40;;;;;;6214288;23;20005;-75
2023/07/20 05:57:33;;;;;;;22.58;7.55;;;32.50;54.00;;;;;;6216101;23;20422;-74
2023/07/20 05:59:59;;;;;;;19.50;7.07;;;32.60;53.70;;;;;;6216171;23;20008;-74
2023/07/20 06:02:25;;;;;;;25.05;7.40;;;32.80;53.20;;;;;;6215481;23;20020;-74
2023/07/20 06:04:50;;;;;;;26.48;8.13;;;33.00;52.80;;;;;;6215720;23;20007;-75
2023/07/20 06:07:16;;;;;;;27.15;7.30;;;33.10;52.40;;;;;;6216237;23;20008;-77
2023/07/20 06:09:42;;;;;;;25.90;7.68;;;33.30;52.00;;;;;;6216377;23;20001;-76
2023/07/20 06:12:08;;;;;;;28.20;8.10;;;33.50;51.80;;;;;;6215697;23;20024;-73
2023/07/20 06:14:34;;;;;;;23.38;7.85;;;33.60;51.40;;;;;;6216017;23;20120;-73
2023/07/20 06:16:59;;;;;;;26.17;7.80;;;33.80;51.40;;;;;;6215988;23;20446;-73
2023/07/20 06:19:25;;;;;;;19.90;7.72;;;34.00;51.20;;;;;;6188727;23;20004;-71
2023/07/20 06:21:51;;;;;;;24.80;7.85;;;34.00;50.90;;;;;;6215341;23;20055;-73
2023/07/20 06:24:17;;;;;;;22.13;7.38;;;34.10;50.80;;;;;;6215682;23;20007;-73
2023/07/20 06:26:43;;;;;;;24.15;7.63;;;34.00;50.90;;;;;;6216029;23;20070;-71
2023/07/20 06:29:09;;;;;;;23.40;7.78;;;34.10;50.80;;;;;;6215337;23;20439;-73
2023/07/20 06:31:35;;;;;;;25.42;7.28;;;34.00;50.60;;;;;;6216227;23;20009;-71
2023/07/20 06:34:02;;;;;;;22.95;8.07;;;34.00;50.60;;;;;;6215818;23;20007;-71
2023/07/20 06:36:28;;;;;;;23.10;9.65;;;34.20;50.50;;;;;;6215810;23;20388;-71
2023/07/20 06:38:54;;;;;;;24.70;8.50;;;34.40;50.00;;;;;;6215585;23;20000;-72
2023/07/20 06:41:20;;;;;;;22.95;7.90;;;34.60;50.00;;;;;;6215187;23;20413;-72
2023/07/20 06:43:46;;;;;;;26.73;8.75;;;34.70;49.60;;;;;;6215557;23;20028;-73
2023/07/20 06:46:12;;;;;;;30.73;8.15;;;34.70;49.80;;;;;;6215256;23;20007;-73
2023/07/20 06:48:37;;;;;;;28.45;8.45;;;34.80;49.50;;;;;;6215584;23;19997;-73
2023/07/20 06:51:03;;;;;;;31.90;8.88;;;34.80;49.50;;;;;;6215768;23;20287;-71
2023/07/20 06:53:30;;;;;;;29.77;7.95;;;35.00;49.30;;;;;;6215773;23;20072;-73
2023/07/20 06:55:58;;;;;;;26.67;8.10;;;35.10;49.30;;;;;;6215480;23;20001;-73
2023/07/20 06:58:24;;;;;;;25.30;8.57;;;35.20;49.20;;;;;;6215667;23;20047;-73
2023/07/20 07:00:50;;;;;;;33.38;8.15;;;35.20;49.20;;;;;;6215128;23;20008;-73
2023/07/20 07:03:16;;;;;;;28.42;8.50;;;35.20;49.00;;;;;;6215148;23;20468;-71
2023/07/20 07:05:42;;;;;;;25.25;9.02;;;35.50;48.70;;;;;;6214999;23;20089;-73
2023/07/20 07:08:07;;;;;;;20.33;7.40;;;35.60;48.40;;;;;;6214775;23;19996;-74
2023/07/20 07:10:35;;;;;;;26.98;7.18;;;35.60;48.40;;;;;;6216009;23;20000;-72
2023/07/20 07:13:01;;;;;;;22.92;7.80;;;35.80;48.30;;;;;;6215445;23;20001;-73
2023/07/20 07:15:27;;;;;;;26.60;7.82;;;35.80;48.30;;;;;;6214968;23;20011;-72
2023/07/20 07:17:53;;;;;;;23.75;7.95;;;35.90;48.50;;;;;;6215391;23;20075;-73
2023/07/20 07:20:18;;;;;;;25.40;7.88;;;35.80;48.60;;;;;;6215168;23;20008;-74
2023/07/20 07:22:45;;;;;;;19.75;7.68;;;35.80;48.60;;;;;;6214920;23;20004;-72
2023/07/20 07:25:11;;;;;;;25.98;8.05;;;35.90;48.70;;;;;;6215379;23;20308;-73
2023/07/20 07:27:37;;;;;;;25.88;8.23;;;36.00;48.40;;;;;;6215287;23;20008;-74
2023/07/20 07:30:04;;;;;;;21.67;7.97;;;36.10;48.20;;;;;;6215287;23;20001;-73
2023/07/20 07:32:29;;;;;;;26.35;8.32;;;36.10;48.30;;;;;;6214468;23;20760;-74
2023/07/20 07:34:55;;;;;;;30.50;9.40;;;36.10;48.50;;;;;;6214608;23;20000;-74
2023/07/20 07:37:21;;;;;;;23.17;8.20;;;36.10;48.40;;;;;;6214945;23;20076;-73
2023/07/20 07:39:47;;;;;;;26.50;7.50;;;36.00;48.50;;;;;;6214599;23;20025;-73
2023/07/20 07:42:13;;;;;;;21.80;7.70;;;35.80;48.70;;;;;;6214384;23;20009;-73
2023/07/20 07:44:38;;;;;;;27.70;7.88;;;35.60;48.90;;;;;;6214406;23;20001;-74
2023/07/20 07:47:04;;;;;;;20.27;7.15;;;35.70;48.80;;;;;;6214607;23;20004;-73
2023/07/20 07:49:31;;;;;;;24.88;8.40;;;35.70;48.60;;;;;;6214408;23;20080;-73
2023/07/20 07:51:57;;;;;;;21.67;6.75;;;35.80;48.50;;;;;;6214690;23;20012;-73
2023/07/20 07:54:23;;;;;;;23.23;7.70;;;35.80;48.30;;;;;;6214433;23;20080;-73
2023/07/20 07:56:48;;;;;;;25.85;7.60;;;35.80;48.20;;;;;;6187953;23;20070;-73
2023/07/20 07:59:14;;;;;;;18.52;7.63;;;35.90;48.10;;;;;;6187499;23;20057;-73
2023/07/20 08:01:40;;;;;;;23.10;7.65;;;35.80;48.00;;;;;;6213620;23;20124;-72
2023/07/20 08:04:05;;;;;;;20.77;7.57;;;35.80;48.30;;;;;;6214181;23;20008;-73
2023/07/20 08:06:31;;;;;;;24.83;7.72;;;35.80;48.20;;;;;;6214083;23;20035;-74
2023/07/20 08:08:57;;;;;;;23.40;7.38;;;35.80;48.10;;;;;;6214133;23;20000;-73
2023/07/20 08:11:23;;;;;;;24.50;6.85;;;35.70;48.10;;;;;;6213705;23;20039;-72
2023/07/20 08:13:49;;;;;;;18.70;5.97;;;35.70;48.30;;;;;;6214001;23;20015;-74
2023/07/20 08:16:15;;;;;;;19.83;5.95;;;35.70;47.90;;;;;;6213920;23;20004;-73
2023/07/20 08:18:41;;;;;;;24.83;7.28;;;35.50;47.80;;;;;;6214221;23;20009;-74
2023/07/20 08:21:06;;;;;;;24.55;7.22;;;35.50;48.00;;;;;;6213777;23;20008;-73
2023/07/20 08:23:32;;;;;;;26.20;7.28;;;35.40;48.50;;;;;;6214108;23;20473;-74
2023/07/20 08:25:58;;;;;;;25.42;6.65;;;35.30;48.80;;;;;;6213991;23;20001;-73
2023/07/20 08:28:26;;;;;;;23.70;7.05;;;35.30;49.40;;;;;;6214191;23;20032;-73
2023/07/20 08:30:52;;;;;;;24.33;7.40;;;35.10;49.90;;;;;;6214068;23;20054;-73
2023/07/20 08:33:21;;;;;;;23.98;8.10;;;35.00;50.50;;;;;;6214366;23;20043;-73
2023/07/20 08:35:47;;;;;;;21.67;7.43;;;34.90;51.00;;;;;;6214048;23;20032;-73
2023/07/20 08:38:13;;;;;;;24.60;7.75;;;35.00;51.40;;;;;;6214006;23;20091;-74
2023/07/20 08:40:44;;;;;;;22.38;7.93;;;34.90;52.00;;;;;;6214701;23;20086;-72
2023/07/20 08:43:16;;;;;;;29.52;7.15;;;34.80;52.50;;;;;;6213827;23;19996;-74
2023/07/20 08:45:44;;;;;;;20.93;7.67;;;34.70;53.20;;;;;;6214080;23;20427;-73
2023/07/20 08:48:11;;;;;;;20.08;7.43;;;34.60;53.80;;;;;;6214243;23;20075;-73
2023/07/20 08:50:38;;;;;;;21.23;8.23;;;34.60;54.10;;;;;;6214084;23;20427;-74
2023/07/20 08:53:04;;;;;;;31.50;8.07;;;34.60;53.80;;;;;;6213770;23;20025;-73
2023/07/20 08:55:31;;;;;;;23.05;7.78;;;34.60;53.60;;;;;;6213615;23;20331;-73
2023/07/20 08:57:59;;;;;;;29.02;8.98;;;34.70;53.30;;;;;;6214046;23;20001;-74
2023/07/20 09:00:26;;;;;;;21.08;7.68;;;34.70;53.30;;;;;;6213985;23;20001;-74
2023/07/20 09:02:55;;;;;;;19.02;8.07;;;34.60;53.80;;;;;;6214325;23;20027;-72
2023/07/20 09:05:23;;;;;;;21.17;8.05;;;34.60;54.10;;;;;;6187340;23;20005;-74
2023/07/20 09:07:49;;;;;;;23.75;8.02;;;34.60;54.30;;;;;;6187682;23;20014;-73
2023/07/20 09:10:15;;;;;;;22.58;7.32;;;34.60;54.00;;;;;;6213930;23;20064;-74
2023/07/20 09:12:43;;;;;;;20.85;7.28;;;34.60;54.00;;;;;;6214201;23;20007;-74
2023/07/20 09:15:10;;;;;;;18.08;7.30;;;34.70;54.40;;;;;;6214142;23;20003;-73
2023/07/20 09:17:37;;;;;;;24.95;8.32;;;34.70;54.40;;;;;;6214113;23;20108;-74
2023/07/20 09:20:07;;;;;;;49.78;10.60;;;34.70;54.30;;;;;;6213988;23;20004;-74
2023/07/20 09:22:34;;;;;;;31.30;9.27;;;34.60;53.70;;;;;;6212825;23;20038;-75
2023/07/20 09:24:59;;;;;;;26.48;8.43;;;34.70;54.00;;;;;;6213294;23;20031;-75
2023/07/20 09:27:46;;;;;;;171.10;21.17;;;34.70;54.30;;;;;;6214154;23;20469;-75
2023/07/20 09:30:14;;;;;;;30.27;9.82;;;34.60;52.60;;;;;;6214197;23;20005;-76
2023/07/20 09:32:47;;;;;;;24.58;7.78;;;34.70;53.90;;;;;;6214616;23;20008;-74
2023/07/20 09:35:17;;;;;;;23.92;7.43;;;34.60;53.60;;;;;;6215519;23;20001;-75
2023/07/20 09:37:48;;;;;;;24.40;7.63;;;34.60;53.20;;;;;;6215810;23;20303;-76
2023/07/20 09:40:17;;;;;;;22.08;7.55;;;34.60;53.10;;;;;;6215785;23;20011;-74
2023/07/20 09:42:43;;;;;;;22.52;7.40;;;34.70;53.20;;;;;;6215318;23;20020;-76
2023/07/20 09:45:10;;;;;;;15.45;7.47;;;34.70;53.30;;;;;;6216485;23;20000;-75
2023/07/20 09:47:38;;;;;;;28.67;7.95;;;34.70;53.10;;;;;;6217464;23;20087;-76
2023/07/20 09:50:10;;;;;;;42.22;11.18;;;34.70;53.20;;;;;;6215949;23;20000;-73
2023/07/20 09:52:40;;;;;;;20.55;8.20;;;34.80;52.80;;;;;;6189125;23;20011;-75
2023/07/20 09:55:08;;;;;;;42.30;9.80;;;34.80;52.00;;;;;;6216149;23;20066;-78
2023/07/20 09:57:35;;;;;;;25.73;8.10;;;34.70;54.10;;;;;;6215803;23;20024;-73
2023/07/20 10:00:07;;;;;;;47.83;9.82;;;34.70;53.60;;;;;;6215878;23;20071;-77
2023/07/20 10:02:36;;;;;;;28.50;8.00;;;34.70;53.70;;;;;;6216492;23;20071;-81
2023/07/20 10:05:04;;;;;;;23.45;7.82;;;34.70;53.30;;;;;;6216258;23;20003;-87
2023/07/20 10:07:31;;;;;;;19.40;7.38;;;34.70;52.80;;;;;;6216084;23;20004;-85
2023/07/20 10:10:01;;;;;;;19.20;8.15;;;34.60;53.00;;;;;;6215788;23;20331;-82
2023/07/20 10:12:28;;;;;;;24.52;7.32;;;34.70;52.60;;;;;;6216036;23;20426;-83
2023/07/20 10:15:10;;;;;;;29.67;9.13;;;34.60;52.80;;;;;;6216769;23;19997;-82
2023/07/20 10:17:40;;;;;;;23.25;7.80;;;34.60;51.40;;;;;;6216283;23;20000;-83
2023/07/20 10:20:07;;;;;;;25.80;10.35;;;34.70;52.50;;;;;;6215958;23;20454;-81
2023/07/20 10:22:36;;;;;;;31.90;10.55;;;34.80;52.40;;;;;;6217235;23;20009;-83
2023/07/20 10:25:04;;;;;;;27.42;10.38;;;34.80;52.50;;;;;;6218116;23;20000;-88
2023/07/20 10:27:30;;;;;;;26.95;9.85;;;34.80;52.30;;;;;;6191016;23;20421;-84
2023/07/20 10:29:58;;;;;;;22.67;9.68;;;34.80;52.60;;;;;;6216673;23;20001;-84
2023/07/20 10:32:24;;;;;;;42.78;14.10;;;34.90;52.70;;;;;;6216539;23;20008;-83
2023/07/20 10:34:54;;;;;;;34.95;13.05;;;35.00;52.50;;;;;;6218368;23;20027;-83
2023/07/20 10:37:46;;;;;;;38.00;11.50;;;34.90;52.80;;;;;;6217296;23;20141;-79
2023/07/20 10:40:37;;;;;;;20.55;7.72;;;34.80;51.60;;;;;;6222385;23;20028;-79
2023/07/20 10:43:07;;;;;;;27.35;10.75;;;34.90;51.40;;;;;;6219119;23;20391;-80
2023/07/20 10:45:47;;;;;;;18.15;6.75;;;35.20;52.40;;;;;;6220001;23;20009;-84
2023/07/20 10:48:24;;;;;;;16.85;8.27;;;35.20;51.10;;;;;;6218821;23;20013;-81
2023/07/20 10:51:14;;;;;;;23.52;7.88;;;35.20;51.00;;;;;;6191970;23;20019;-84
2023/07/20 10:53:40;;;;;;;21.17;7.43;;;35.40;51.80;;;;;;6217961;23;20043;-85
2023/07/20 10:56:07;;;;;;;33.03;7.75;;;35.50;51.50;;;;;;6216834;23;19996;-85
2023/07/20 10:58:33;;;;;;;26.30;7.05;;;35.50;50.80;;;;;;6213856;23;20005;-73
2023/07/20 11:01:03;;;;;;;21.08;7.28;;;35.50;50.40;;;;;;6214505;23;20082;-73
2023/07/20 11:03:31;;;;;;;21.48;7.53;;;35.60;50.10;;;;;;6215593;23;20020;-73
2023/07/20 11:05:58;;;;;;;18.60;7.63;;;35.70;50.20;;;;;;6213660;23;20011;-72
2023/07/20 11:08:43;;;;;;;21.52;6.47;;;35.80;50.50;;;;;;6212879;23;20006;-72
2023/07/20 11:11:26;;;;;;;18.08;6.32;;;35.80;50.50;;;;;;6214002;23;20028;-72
2023/07/20 11:13:59;;;;;;;24.92;7.90;;;35.90;50.00;;;;;;6215344;23;20476;-71
2023/07/20 11:16:40;;;;;;;20.70;7.80;;;36.00;52.80;;;;;;6215420;23;20418;-72
2023/07/20 11:19:20;;;;;;;20.10;8.40;;;36.10;53.90;;;;;;6215490;23;20008;-73
2023/07/20 11:21:50;;;;;;;15.95;8.27;;;36.10;53.30;;;;;;6215566;23;20458;-73
2023/07/20 11:24:16;;;;;;;15.27;7.70;;;36.20;55.40;;;;;;6215425;23;20031;-73
2023/07/20 11:26:42;;;;;;;16.13;8.10;;;36.20;55.60;;;;;;6186980;23;20425;-73
2023/07/20 11:29:08;;;;;;;17.90;7.88;;;36.20;55.50;;;;;;6214566;23;20078;-72
2023/07/20 11:31:42;;;;;;;15.65;7.88;;;36.20;55.60;;;;;;6215409;23;20082;-72
2023/07/20 11:34:14;;;;;;;20.40;8.13;;;36.30;55.80;;;;;;6215402;23;20050;-73
2023/07/20 11:36:42;;;;;;;21.85;8.10;;;36.40;55.90;;;;;;6215441;23;20068;-71
2023/07/20 11:39:12;;;;;;;25.02;8.40;;;36.40;55.70;;;;;;6215168;23;20004;-73
2023/07/20 11:41:39;;;;;;;20.75;8.63;;;36.40;56.00;;;;;;6214739;23;20013;-74
2023/07/20 11:44:07;;;;;;;19.60;8.10;;;36.40;56.50;;;;;;6214908;23;20000;-72
2023/07/20 11:46:34;;;;;;;21.92;8.05;;;36.30;56.90;;;;;;6163861;23;20009;-73
2023/07/20 11:49:00;;;;;;;22.90;8.43;;;36.20;57.00;;;;;;6215413;23;20001;-74
2023/07/20 11:51:32;;;;;;;16.15;7.88;;;36.20;57.00;;;;;;6214986;23;20008;-73
2023/07/20 11:53:58;;;;;;;20.83;8.23;;;36.20;56.90;;;;;;6214768;23;19996;-72
2023/07/20 11:56:27;;;;;;;18.55;8.30;;;36.20;57.10;;;;;;6214693;23;20008;-73
2023/07/20 11:58:59;;;;;;;20.60;7.93;;;36.20;56.90;;;;;;6215152;23;20003;-73
2023/07/20 12:01:28;;;;;;;20.35;8.00;;;36.20;56.90;;;;;;6214801;23;20082;-74
2023/07/20 12:03:56;;;;;;;19.48;7.53;;;36.20;56.70;;;;;;6215129;23;20027;-72
2023/07/20 12:06:27;;;;;;;17.45;8.05;;;36.20;56.90;;;;;;6214843;23;20005;-73
2023/07/20 12:08:57;;;;;;;22.85;7.95;;;36.20;56.50;;;;;;6214938;23;20094;-73
2023/07/20 12:11:44;;;;;;;17.48;8.07;;;36.30;56.80;;;;;;6214631;23;20109;-73
2023/07/20 12:14:10;;;;;;;17.25;7.97;;;36.40;56.60;;;;;;6214973;23;20080;-73
2023/07/20 12:16:40;;;;;;;25.40;7.85;;;36.40;56.80;;;;;;6214834;23;20054;-73
2023/07/20 12:19:10;;;;;;;26.38;8.32;;;36.40;55.60;;;;;;6215013;23;20051;-72
2023/07/20 12:21:38;;;;;;;18.52;8.30;;;36.40;56.70;;;;;;6214869;23;20013;-73
2023/07/20 12:24:04;;;;;;;20.05;7.68;;;36.50;56.70;;;;;;6214999;23;20050;-73
2023/07/20 12:26:31;;;;;;;21.85;8.88;;;36.50;56.00;;;;;;6215220;23;20023;-73
2023/07/20 12:28:57;;;;;;;18.92;7.45;;;36.50;56.70;;;;;;6214689;23;20001;-73
2023/07/20 12:31:24;;;;;;;19.85;7.57;;;36.50;56.70;;;;;;6214875;23;20005;-73
2023/07/20 12:33:51;;;;;;;21.67;7.65;;;36.50;56.80;;;;;;6214547;23;20001;-72
2023/07/20 12:36:17;;;;;;;16.40;7.55;;;36.50;56.70;;;;;;6214235;23;20066;-73
2023/07/20 12:38:43;;;;;;;18.38;8.68;;;36.50;56.70;;;;;;6214937;23;20000;-75